Time;durP1;ratioP1;P1;durP2;ratioP2;P2;SDS_P1;SDS_P2;PMS_P1;PMS_P2;Temp;Humidity;BMP_temperature;BMP_pressure;BME280_temperature;BME280_humidity;BME280_pressure;Samples;Min_cycle;Max_cycle;Signal;HPM_P1;HPM_P2
2022/12/04 00:01:34;;;;;;;1999.90;999.90;;;3.30;99.90;;;;;;5048924;28;20463;-68
2022/12/04 00:04:01;;;;;;;1999.90;999.90;;;3.40;99.90;;;;;;5048835;28;20829;-68
2022/12/04 00:06:29;;;;;;;1999.90;999.90;;;3.20;99.90;;;;;;5049024;28;20443;-68
2022/12/04 00:08:57;;;;;;;1999.90;999.90;;;3.20;99.90;;;;;;5048701;28;20448;-68
2022/12/04 00:11:26;;;;;;;1999.90;999.90;;;3.10;99.90;;;;;;5048273;28;21017;-68
2022/12/04 00:13:55;;;;;;;1999.90;999.90;;;3.20;99.90;;;;;;5048695;28;20452;-68
2022/12/04 00:16:24;;;;;;;1999.90;999.90;;;3.20;99.90;;;;;;5048492;28;20483;-68
2022/12/04 00:18:51;;;;;;;1999.90;999.90;;;3.30;99.90;;;;;;5048352;28;20452;-68
2022/12/04 00:21:20;;;;;;;1999.90;999.90;;;3.50;99.90;;;;;;5048347;28;20467;-68
2022/12/04 00:23:47;;;;;;;1999.90;999.90;;;3.50;99.90;;;;;;5048518;28;20444;-68
2022/12/04 00:26:16;;;;;;;1999.90;999.90;;;3.50;99.90;;;;;;5048136;28;20436;-68
2022/12/04 00:28:43;;;;;;;1999.90;999.90;;;3.60;99.90;;;;;;5048292;28;20444;-68
2022/12/04 00:31:14;;;;;;;1999.90;999.90;;;3.70;99.90;;;;;;5047888;28;20468;-68
2022/12/04 00:33:41;;;;;;;1999.90;999.90;;;3.60;99.90;;;;;;5048214;28;20451;-68
2022/12/04 00:36:11;;;;;;;1999.90;999.90;;;3.50;99.90;;;;;;5047926;28;20444;-68
2022/12/04 00:38:38;;;;;;;1999.90;999.90;;;3.60;99.90;;;;;;5047442;28;20459;-68
2022/12/04 00:41:07;;;;;;;1999.90;999.90;;;3.50;99.90;;;;;;5048233;28;20472;-68
2022/12/04 00:43:34;;;;;;;1999.90;999.90;;;3.50;99.90;;;;;;5047904;28;20455;-68
2022/12/04 00:46:02;;;;;;;1999.90;999.90;;;3.60;99.90;;;;;;5047271;28;20530;-68
2022/12/04 00:48:30;;;;;;;1999.90;999.90;;;3.60;99.90;;;;;;5047519;28;20934;-68
2022/12/04 00:51:01;;;;;;;1999.90;999.90;;;3.60;99.90;;;;;;5047928;28;20482;-68
2022/12/04 00:53:28;;;;;;;1999.90;999.90;;;3.70;99.90;;;;;;5047767;28;20444;-68
2022/12/04 00:55:55;;;;;;;1999.90;999.90;;;3.60;99.90;;;;;;5047636;28;21036;-68
2022/12/04 00:58:22;;;;;;;1999.90;999.90;;;3.70;99.90;;;;;;5047405;28;20440;-68
2022/12/04 01:00:48;;;;;;;1999.90;999.90;;;3.70;99.90;;;;;;5047824;28;21014;-68
2022/12/04 01:03:15;;;;;;;1999.90;999.90;;;3.70;99.90;;;;;;5050580;28;20452;-68
2022/12/04 01:05:45;;;;;;;1999.90;999.90;;;3.80;99.90;;;;;;5050554;28;20444;-68
2022/12/04 01:08:12;;;;;;;1999.90;999.90;;;3.80;99.90;;;;;;5040994;28;20454;-68
2022/12/04 01:10:40;;;;;;;1999.90;999.90;;;3.70;99.90;;;;;;5046817;28;20463;-68
2022/12/04 01:13:07;;;;;;;1999.90;999.90;;;3.70;99.90;;;;;;5047267;28;20440;-68
2022/12/04 01:15:37;;;;;;;1999.90;999.90;;;3.70;99.90;;;;;;5047106;28;20448;-68
2022/12/04 01:18:04;;;;;;;1999.90;999.90;;;3.70;99.90;;;;;;5047264;28;21009;-68
2022/12/04 01:20:31;;;;;;;1999.90;999.90;;;3.80;99.90;;;;;;5047046;28;20474;-68
2022/12/04 01:22:59;;;;;;;1999.90;999.90;;;3.80;99.90;;;;;;5047096;28;20443;-68
2022/12/04 01:25:26;;;;;;;1999.90;999.90;;;3.70;99.90;;;;;;5047552;28;20440;-68
2022/12/04 01:27:52;;;;;;;1999.90;999.90;;;3.70;99.90;;;;;;5046952;28;20436;-68
2022/12/04 01:30:19;;;;;;;1999.90;999.90;;;3.70;99.90;;;;;;5047194;28;20447;-68
2022/12/04 01:32:46;;;;;;;1999.90;999.90;;;3.70;99.90;;;;;;5047265;28;20834;-68
2022/12/04 01:35:13;;;;;;;1999.90;999.90;;;3.70;99.90;;;;;;5047327;28;20466;-68
2022/12/04 01:37:40;;;;;;;1999.90;999.90;;;3.80;99.90;;;;;;5047374;28;20484;-68
2022/12/04 01:40:13;;;;;;;1999.90;999.90;;;3.80;99.90;;;;;;5047110;28;20471;-68
2022/12/04 01:42:40;;;;;;;1999.90;999.90;;;3.70;99.90;;;;;;5047245;28;20463;-68
2022/12/04 01:45:38;;;;;;;1999.90;999.90;;;3.70;99.90;;;;;;5048168;28;20930;-68
2022/12/04 01:48:12;;;;;;;1999.90;999.90;;;3.60;99.90;;;;;;5050034;28;20451;-68
2022/12/04 01:50:40;;;;;;;1999.90;999.90;;;3.70;99.90;;;;;;5049637;28;20984;-68
2022/12/04 01:53:07;;;;;;;1999.90;999.90;;;3.70;99.90;;;;;;5050169;28;20450;-69
2022/12/04 01:55:36;;;;;;;1999.90;999.90;;;3.60;99.90;;;;;;5049681;28;20447;-68
2022/12/04 01:58:03;;;;;;;1999.90;999.90;;;3.60;99.90;;;;;;5049835;28;20541;-69
2022/12/04 02:00:30;;;;;;;1999.90;999.90;;;3.60;99.90;;;;;;5049328;28;20459;-68
2022/12/04 02:02:58;;;;;;;1999.90;999.90;;;3.60;99.90;;;;;;5050029;28;20474;-68
2022/12/04 02:05:25;;;;;;;1999.90;999.90;;;3.60;99.90;;;;;;5049827;28;20448;-68
2022/12/04 02:07:55;;;;;;;1999.90;999.90;;;3.70;99.90;;;;;;5049938;28;20443;-68
2022/12/04 02:10:26;;;;;;;1999.90;999.90;;;3.70;99.90;;;;;;5049080;28;20455;-69
2022/12/04 02:13:02;;;;;;;1999.90;999.90;;;3.70;99.90;;;;;;5049558;28;20954;-68
2022/12/04 02:15:40;;;;;;;1999.90;999.90;;;3.70;99.90;;;;;;5049493;28;20973;-68
2022/12/04 02:18:14;;;;;;;1999.90;999.90;;;3.60;99.90;;;;;;5049525;28;20479;-68
2022/12/04 02:20:46;;;;;;;1999.90;999.90;;;3.70;99.90;;;;;;5049277;28;20560;-69
2022/12/04 02:23:35;;;;;;;1999.90;999.90;;;3.60;99.90;;;;;;5049498;28;20448;-68
2022/12/04 02:26:18;;;;;;;1999.90;999.90;;;3.60;99.90;;;;;;5044680;28;20463;-68
2022/12/04 02:28:51;;;;;;;1999.90;999.90;;;3.50;99.90;;;;;;5049190;28;21285;-68
2022/12/04 02:31:22;;;;;;;1999.90;999.90;;;3.50;99.90;;;;;;5049386;28;20460;-68
2022/12/04 02:33:58;;;;;;;1999.90;999.90;;;3.40;99.90;;;;;;5049408;28;20462;-68
2022/12/04 02:36:29;;;;;;;1999.90;999.90;;;3.30;99.90;;;;;;5049083;28;20472;-67
2022/12/04 02:39:04;;;;;;;1999.90;999.90;;;3.30;99.90;;;;;;5048906;28;20454;-68
2022/12/04 02:41:37;;;;;;;1999.90;999.90;;;3.30;99.90;;;;;;5049349;28;20480;-68
2022/12/04 02:44:10;;;;;;;1999.90;999.90;;;3.40;99.90;;;;;;5049153;28;20459;-69
2022/12/04 02:46:40;;;;;;;1999.90;999.90;;;3.50;99.90;;;;;;5049534;28;20448;-68
2022/12/04 02:49:11;;;;;;;1999.90;999.90;;;3.60;99.90;;;;;;5048800;28;20448;-69
2022/12/04 02:51:40;;;;;;;1999.90;999.90;;;3.60;99.90;;;;;;5049522;28;20464;-68
2022/12/04 02:54:11;;;;;;;1999.90;999.90;;;3.70;99.90;;;;;;5049230;28;20451;-69
2022/12/04 02:56:43;;;;;;;1999.90;999.90;;;3.80;99.90;;;;;;5052911;28;20454;-69
2022/12/04 02:59:16;;;;;;;1999.90;999.90;;;3.80;99.90;;;;;;5052712;28;20451;-68
2022/12/04 03:01:47;;;;;;;1999.90;999.90;;;3.70;99.90;;;;;;5053000;28;20884;-69
2022/12/04 03:04:17;;;;;;;1999.90;999.90;;;3.70;99.90;;;;;;5052747;28;20451;-69
2022/12/04 03:06:47;;;;;;;1999.90;999.90;;;3.70;99.90;;;;;;5052937;28;20444;-68
2022/12/04 03:09:17;;;;;;;1999.90;999.90;;;3.60;99.90;;;;;;5052209;28;20454;-69
2022/12/04 03:11:50;;;;;;;1999.90;999.90;;;3.50;99.90;;;;;;5053100;28;20468;-69
2022/12/04 03:14:22;;;;;;;1999.90;999.90;;;3.50;99.90;;;;;;5052863;28;20479;-69
2022/12/04 03:16:53;;;;;;;1999.90;999.90;;;3.60;99.90;;;;;;5052776;28;20840;-69
2022/12/04 03:19:24;;;;;;;1999.90;999.90;;;3.70;99.90;;;;;;5052585;28;20444;-69
2022/12/04 03:21:58;;;;;;;1999.90;999.90;;;3.70;99.90;;;;;;5052433;28;20471;-69
2022/12/04 03:24:27;;;;;;;1999.90;999.90;;;3.70;99.90;;;;;;5052619;28;20450;-69
2022/12/04 03:27:01;;;;;;;1999.90;999.90;;;3.70;99.90;;;;;;5052894;28;20443;-69
2022/12/04 03:29:33;;;;;;;1999.90;999.90;;;3.90;99.90;;;;;;5052261;28;20501;-69
2022/12/04 03:32:07;;;;;;;1999.90;999.90;;;3.90;99.90;;;;;;5052295;28;20460;-69
2022/12/04 03:34:42;;;;;;;1999.90;999.90;;;3.90;99.90;;;;;;5052440;28;20463;-69
2022/12/04 03:37:12;;;;;;;1999.90;999.90;;;3.90;99.90;;;;;;5052418;28;20475;-68
2022/12/04 03:39:46;;;;;;;1999.90;999.90;;;3.90;99.90;;;;;;5051985;28;20448;-69
2022/12/04 03:42:18;;;;;;;1999.90;999.90;;;4.00;99.90;;;;;;5052304;28;20468;-69
2022/12/04 03:44:49;;;;;;;1999.90;999.90;;;3.90;99.90;;;;;;5052570;28;20448;-69
2022/12/04 03:47:20;;;;;;;1999.90;999.90;;;3.90;99.90;;;;;;5052307;28;20501;-69
2022/12/04 03:49:52;;;;;;;1999.90;999.90;;;3.80;99.90;;;;;;5052194;28;20448;-69
2022/12/04 03:52:24;;;;;;;1999.90;999.90;;;3.80;99.90;;;;;;5051931;28;20470;-69
2022/12/04 03:54:57;;;;;;;1999.90;999.90;;;4.00;99.90;;;;;;5052049;28;20960;-68
2022/12/04 03:57:28;;;;;;;1999.90;999.90;;;4.00;99.90;;;;;;5051664;28;21102;-68
2022/12/04 04:00:04;;;;;;;1999.90;999.90;;;4.10;99.90;;;;;;5051579;28;20436;-68
2022/12/04 04:02:36;;;;;;;1999.90;999.90;;;4.10;99.90;;;;;;5051871;28;20558;-69
2022/12/04 04:05:08;;;;;;;1999.90;999.90;;;4.10;99.90;;;;;;5052170;28;20440;-68
2022/12/04 04:07:39;;;;;;;1999.90;999.90;;;4.10;99.90;;;;;;5050672;28;20440;-68
2022/12/04 04:10:14;;;;;;;1999.90;999.90;;;4.10;99.90;;;;;;5051927;28;20452;-68
2022/12/04 04:12:45;;;;;;;1999.90;999.90;;;4.10;99.90;;;;;;5051720;28;20451;-68
2022/12/04 04:26:23;;;;;;;1999.90;999.90;;;3.90;99.90;;;;;;5051573;28;20542;-67
2022/12/04 04:28:50;;;;;;;1999.90;999.90;;;4.00;99.90;;;;;;5051405;28;20447;-68
2022/12/04 04:31:26;;;;;;;1999.90;999.90;;;4.00;99.90;;;;;;5051498;28;20464;-68
2022/12/04 04:34:01;;;;;;;1999.90;999.90;;;4.10;99.90;;;;;;5051157;28;20478;-68
2022/12/04 04:36:38;;;;;;;1999.90;999.90;;;4.00;99.90;;;;;;5051370;28;20452;-68
2022/12/04 04:39:14;;;;;;;1999.90;999.90;;;3.90;99.90;;;;;;5050591;28;20479;-68
2022/12/04 04:41:49;;;;;;;1999.90;999.90;;;3.90;99.90;;;;;;5051328;28;20468;-68
2022/12/04 04:44:20;;;;;;;1999.90;999.90;;;4.00;99.90;;;;;;5051302;28;20471;-68
2022/12/04 04:46:53;;;;;;;1999.90;999.90;;;4.00;99.90;;;;;;5051069;28;20444;-68
2022/12/04 04:49:25;;;;;;;1999.90;999.90;;;4.00;99.90;;;;;;5050596;28;20447;-68
2022/12/04 04:51:53;;;;;;;1999.90;999.90;;;4.00;99.90;;;;;;5050628;28;20468;-68
2022/12/04 04:54:21;;;;;;;1999.90;999.90;;;4.00;99.90;;;;;;5051074;28;20904;-68
2022/12/04 04:56:48;;;;;;;1999.90;999.90;;;4.00;99.90;;;;;;5050762;28;20444;-68
2022/12/04 04:59:15;;;;;;;1999.90;999.90;;;4.00;99.90;;;;;;5050406;28;20479;-68
2022/12/04 05:01:45;;;;;;;1999.90;999.90;;;4.00;99.90;;;;;;5050387;28;20476;-68
2022/12/04 05:04:14;;;;;;;1999.90;999.90;;;4.00;99.90;;;;;;5050931;28;20476;-68
2022/12/04 05:06:40;;;;;;;1999.90;999.90;;;4.00;99.90;;;;;;5050304;28;20444;-68
2022/12/04 05:09:07;;;;;;;1999.90;999.90;;;4.00;99.90;;;;;;5050410;28;20440;-68
2022/12/04 05:11:34;;;;;;;1999.90;999.90;;;4.00;99.90;;;;;;5050266;28;20956;-67
2022/12/04 05:14:01;;;;;;;1999.90;999.90;;;4.00;99.90;;;;;;5050465;28;20456;-68
2022/12/04 05:16:27;;;;;;;1999.90;999.90;;;3.90;99.90;;;;;;5050296;28;20440;-68
2022/12/04 05:21:48;;;;;;;1999.90;999.90;;;3.80;99.90;;;;;;5025553;28;20447;-68
2022/12/04 05:24:15;;;;;;;1999.90;999.90;;;3.90;99.90;;;;;;5050332;28;20444;-68
2022/12/04 05:26:42;;;;;;;1999.90;999.90;;;3.90;99.90;;;;;;5050334;28;20444;-68
2022/12/04 05:29:09;;;;;;;1999.90;999.90;;;4.00;99.90;;;;;;5049628;28;20980;-68
2022/12/04 05:31:35;;;;;;;1999.90;999.90;;;4.00;99.90;;;;;;5050089;28;20467;-68
2022/12/04 05:34:02;;;;;;;1999.90;999.90;;;4.00;99.90;;;;;;5049849;28;21012;-67
2022/12/04 05:36:29;;;;;;;1999.90;999.90;;;4.00;99.90;;;;;;5049826;28;20984;-67
2022/12/04 05:38:58;;;;;;;1999.90;999.90;;;4.00;99.90;;;;;;5049407;28;20484;-68
2022/12/04 05:41:24;;;;;;;1999.90;999.90;;;4.00;99.90;;;;;;5049779;28;20470;-67
2022/12/04 05:43:52;;;;;;;1999.90;999.90;;;4.10;99.90;;;;;;5049969;28;20467;-67
2022/12/04 05:46:19;;;;;;;1999.90;999.90;;;4.00;99.90;;;;;;5050128;28;20478;-67
2022/12/04 05:48:46;;;;;;;1999.90;999.90;;;4.00;99.90;;;;;;5049483;28;20448;-68
2022/12/04 05:51:13;;;;;;;1999.90;999.90;;;3.80;99.90;;;;;;5049924;28;20475;-67
2022/12/04 05:53:39;;;;;;;1999.90;999.90;;;3.80;99.90;;;;;;5050173;28;20542;-67
2022/12/04 05:56:08;;;;;;;1999.90;999.90;;;3.80;99.90;;;;;;5049762;28;20522;-67
2022/12/04 05:58:36;;;;;;;1999.90;999.90;;;3.80;99.90;;;;;;5049863;28;20479;-67
2022/12/04 06:01:09;;;;;;;1999.90;999.90;;;3.90;99.90;;;;;;5049456;28;21012;-68
2022/12/04 06:03:36;;;;;;;1999.90;999.90;;;3.90;99.90;;;;;;5049781;28;20448;-68
2022/12/04 06:06:03;;;;;;;1999.90;999.90;;;3.90;99.90;;;;;;5049455;28;20457;-68
2022/12/04 06:08:30;;;;;;;1999.90;999.90;;;4.00;99.90;;;;;;5049234;28;20708;-68
2022/12/04 06:10:57;;;;;;;1999.90;999.90;;;4.00;99.90;;;;;;5049595;28;20468;-67
2022/12/04 06:13:25;;;;;;;1999.90;999.90;;;4.00;99.90;;;;;;5049672;28;20471;-67
2022/12/04 06:15:51;;;;;;;1999.90;999.90;;;4.10;99.90;;;;;;5049458;28;20443;-68
2022/12/04 06:18:18;;;;;;;1999.90;999.90;;;4.10;99.90;;;;;;5048979;28;21262;-68
2022/12/04 06:20:45;;;;;;;1999.90;999.90;;;4.10;99.90;;;;;;5049609;28;20464;-68
2022/12/04 06:23:12;;;;;;;1999.90;999.90;;;4.10;99.90;;;;;;5049215;28;20448;-68
2022/12/04 06:25:38;;;;;;;1999.90;999.90;;;4.20;99.90;;;;;;5049703;28;20448;-68
2022/12/04 06:28:05;;;;;;;1999.90;999.90;;;4.10;99.90;;;;;;5049349;28;20550;-68
2022/12/04 06:30:35;;;;;;;1999.90;999.90;;;4.10;99.90;;;;;;5051589;28;20463;-68
2022/12/04 06:33:01;;;;;;;1999.90;999.90;;;4.00;99.90;;;;;;5053249;28;20481;-68
2022/12/04 06:35:28;;;;;;;1999.90;999.90;;;4.10;99.90;;;;;;5053354;28;20456;-68
2022/12/04 06:37:55;;;;;;;1999.90;999.90;;;4.00;99.90;;;;;;5053369;28;20487;-68
2022/12/04 06:40:22;;;;;;;1999.90;999.90;;;4.00;99.90;;;;;;5053246;28;20451;-68
2022/12/04 06:42:48;;;;;;;1999.90;999.90;;;4.00;99.90;;;;;;5053287;28;20448;-68
2022/12/04 06:45:15;;;;;;;1999.90;999.90;;;3.90;99.90;;;;;;5053639;28;20444;-68
2022/12/04 06:47:43;;;;;;;1999.90;999.90;;;4.00;99.90;;;;;;5053543;28;20439;-68
2022/12/04 06:50:10;;;;;;;1999.90;999.90;;;4.00;99.90;;;;;;5052705;28;20450;-68
2022/12/04 06:52:37;;;;;;;1999.90;999.90;;;4.10;99.90;;;;;;5053488;28;20447;-68
2022/12/04 06:55:05;;;;;;;1999.90;999.90;;;4.20;99.90;;;;;;5053287;28;20455;-68
2022/12/04 06:57:31;;;;;;;1999.90;999.90;;;4.20;99.90;;;;;;5053395;28;20448;-68
2022/12/04 06:59:58;;;;;;;1999.90;999.90;;;4.20;99.90;;;;;;5052634;28;20571;-68
2022/12/04 07:02:25;;;;;;;1999.90;999.90;;;4.20;99.90;;;;;;5053150;28;20463;-68
2022/12/04 07:04:56;;;;;;;1999.90;999.90;;;4.20;99.90;;;;;;5052829;28;20459;-68
2022/12/04 07:07:23;;;;;;;1999.90;999.90;;;4.20;99.90;;;;;;5053244;28;20447;-68
2022/12/04 07:09:49;;;;;;;1999.90;999.90;;;4.20;99.90;;;;;;5052307;28;20436;-69
2022/12/04 07:12:16;;;;;;;1999.90;999.90;;;4.20;99.90;;;;;;5052786;28;20482;-68
2022/12/04 07:14:43;;;;;;;1999.90;999.90;;;4.20;99.90;;;;;;5052812;28;20489;-68
2022/12/04 07:17:10;;;;;;;1999.90;999.90;;;4.20;99.90;;;;;;5052461;28;20548;-68
2022/12/04 07:19:37;;;;;;;1999.90;999.90;;;4.30;99.90;;;;;;5052754;28;20475;-68
2022/12/04 07:22:07;;;;;;;1999.90;999.90;;;4.30;99.90;;;;;;5052389;28;20479;-68
2022/12/04 07:24:36;;;;;;;1999.90;999.90;;;4.30;99.90;;;;;;5052496;28;20475;-68
2022/12/04 07:27:02;;;;;;;1999.90;999.90;;;4.30;99.90;;;;;;5052462;28;20448;-68
2022/12/04 07:29:29;;;;;;;1999.90;999.90;;;4.10;99.90;;;;;;5052140;28;20443;-68
2022/12/04 07:31:56;;;;;;;1999.90;999.90;;;4.10;99.90;;;;;;5052201;28;20489;-68
2022/12/04 07:34:23;;;;;;;1999.90;999.90;;;4.00;99.90;;;;;;5052453;28;20471;-68
2022/12/04 07:36:50;;;;;;;1999.90;999.90;;;3.90;99.90;;;;;;5052265;28;20459;-68
2022/12/04 07:39:18;;;;;;;1999.90;999.90;;;3.70;99.90;;;;;;5052003;28;20491;-68
2022/12/04 07:41:45;;;;;;;1999.90;999.90;;;3.60;99.90;;;;;;5052111;28;20902;-69
2022/12/04 07:44:11;;;;;;;1999.90;999.90;;;3.60;99.90;;;;;;5052387;28;20454;-67
2022/12/04 07:46:38;;;;;;;1999.90;999.90;;;3.70;99.90;;;;;;5052269;28;20444;-68
2022/12/04 07:49:05;;;;;;;1999.90;999.90;;;3.80;99.90;;;;;;5051772;28;20440;-68
2022/12/04 07:51:32;;;;;;;1999.90;999.90;;;3.80;99.90;;;;;;5052016;28;20495;-68
2022/12/04 07:53:59;;;;;;;1999.90;999.90;;;3.90;99.90;;;;;;5051837;28;20447;-68
2022/12/04 07:56:27;;;;;;;1999.90;999.90;;;4.00;99.90;;;;;;5052058;28;20444;-68
2022/12/04 07:58:53;;;;;;;1999.90;999.90;;;3.90;99.90;;;;;;5051267;28;20476;-68
2022/12/04 08:01:22;;;;;;;1999.90;999.90;;;4.00;99.90;;;;;;5051957;28;20468;-67
2022/12/04 08:03:52;;;;;;;1999.90;999.90;;;4.10;99.90;;;;;;5050993;28;21173;-68
2022/12/04 08:06:21;;;;;;;1999.90;999.90;;;3.90;99.90;;;;;;5051914;28;20522;-67
2022/12/04 08:08:48;;;;;;;1999.90;999.90;;;4.00;99.90;;;;;;5051230;28;20443;-67
2022/12/04 08:11:18;;;;;;;1999.90;999.90;;;4.10;99.90;;;;;;5051551;28;20463;-69
2022/12/04 08:13:46;;;;;;;1999.90;999.90;;;3.90;99.90;;;;;;5050378;28;20966;-67
2022/12/04 08:16:14;;;;;;;1999.90;999.90;;;3.80;99.90;;;;;;5051161;28;20448;-67
2022/12/04 08:18:45;;;;;;;1999.90;999.90;;;3.70;99.90;;;;;;5051357;28;20480;-68
2022/12/04 08:21:14;;;;;;;1999.90;999.90;;;3.70;99.90;;;;;;5051284;28;20556;-68
2022/12/04 08:23:42;;;;;;;1999.90;999.90;;;3.80;99.90;;;;;;5051370;28;20474;-68
2022/12/04 08:26:10;;;;;;;1999.90;999.90;;;3.90;99.90;;;;;;5050888;28;20451;-68
2022/12/04 08:28:38;;;;;;;1999.90;999.90;;;3.80;99.90;;;;;;5051409;28;20462;-68
2022/12/04 08:31:09;;;;;;;1999.90;999.90;;;3.90;99.90;;;;;;5051050;28;20470;-68
2022/12/04 08:33:36;;;;;;;1999.90;999.90;;;3.90;99.90;;;;;;5051688;28;20443;-68
2022/12/04 08:36:06;;;;;;;1999.90;999.90;;;3.80;99.90;;;;;;5050948;28;20448;-68
2022/12/04 08:38:33;;;;;;;1999.90;999.90;;;3.80;99.90;;;;;;5050807;28;20486;-68
2022/12/04 08:41:01;;;;;;;1999.90;999.90;;;3.80;99.90;;;;;;5051167;28;20460;-68
2022/12/04 08:43:28;;;;;;;1999.90;999.90;;;3.80;99.90;;;;;;5051193;28;20448;-67
2022/12/04 08:45:56;;;;;;;1999.90;999.90;;;3.90;99.90;;;;;;5051098;28;20819;-68
2022/12/04 08:48:24;;;;;;;1999.90;999.90;;;4.00;99.90;;;;;;5050536;28;20505;-68
2022/12/04 08:50:51;;;;;;;1999.90;999.90;;;4.10;99.90;;;;;;5050941;28;20871;-68
2022/12/04 08:53:18;;;;;;;1999.90;999.90;;;4.20;99.90;;;;;;5050051;28;20814;-68
2022/12/04 08:55:48;;;;;;;1999.90;999.90;;;4.30;99.90;;;;;;5050827;28;20439;-68
2022/12/04 08:58:15;;;;;;;1999.90;999.90;;;4.30;99.90;;;;;;5050376;28;20820;-68
2022/12/04 09:00:42;;;;;;;1999.90;999.90;;;4.30;99.90;;;;;;5050610;28;20474;-69
2022/12/04 09:03:11;;;;;;;1999.90;999.90;;;4.40;99.90;;;;;;5050684;28;20479;-68
2022/12/04 09:05:40;;;;;;;1999.90;999.90;;;4.40;99.90;;;;;;5050021;28;20448;-69
2022/12/04 09:08:07;;;;;;;1999.90;999.90;;;4.50;99.90;;;;;;5046828;28;20968;-69
2022/12/04 09:10:35;;;;;;;1999.90;999.90;;;4.40;99.90;;;;;;5050120;28;20999;-67
2022/12/04 09:13:01;;;;;;;1999.90;999.90;;;4.40;99.90;;;;;;5050579;28;20455;-66
2022/12/04 09:15:28;;;;;;;1999.90;999.90;;;4.30;99.90;;;;;;5050063;28;20462;-67
2022/12/04 09:17:55;;;;;;;1999.90;999.90;;;4.30;99.90;;;;;;5049744;28;21071;-69
2022/12/04 09:20:22;;;;;;;1999.90;999.90;;;4.30;99.90;;;;;;5049692;28;20480;-69
2022/12/04 09:22:50;;;;;;;1999.90;999.90;;;4.20;99.90;;;;;;5034076;28;20440;-67
2022/12/04 09:25:17;;;;;;;1999.90;999.90;;;4.10;99.90;;;;;;5050310;28;20456;-68
2022/12/04 09:27:44;;;;;;;1999.90;999.90;;;4.10;99.90;;;;;;5050578;28;20440;-69
2022/12/04 09:30:12;;;;;;;1999.90;999.90;;;4.20;99.90;;;;;;5049559;28;20942;-68
2022/12/04 09:32:39;;;;;;;1999.90;999.90;;;4.20;99.90;;;;;;5050114;28;20795;-68
2022/12/04 09:35:07;;;;;;;1999.90;999.90;;;4.30;99.90;;;;;;5050138;28;20969;-69
2022/12/04 09:37:35;;;;;;;1999.90;999.90;;;4.30;99.90;;;;;;5050119;28;20658;-69
2022/12/04 09:40:03;;;;;;;1999.90;999.90;;;4.40;99.90;;;;;;5049986;28;20483;-70
2022/12/04 09:42:43;;;;;;;1999.90;999.90;;;4.30;99.90;;;;;;5049933;28;20478;-69
2022/12/04 09:45:14;;;;;;;1999.90;999.90;;;4.40;99.90;;;;;;5050086;28;20458;-68
2022/12/04 09:47:44;;;;;;;1999.90;999.90;;;4.50;99.90;;;;;;5050494;28;20444;-69
2022/12/04 09:50:16;;;;;;;1999.90;999.90;;;4.50;99.90;;;;;;5049918;28;20439;-68
2022/12/04 09:52:49;;;;;;;1999.90;999.90;;;4.60;99.90;;;;;;5050130;28;20444;-69
2022/12/04 09:55:23;;;;;;;1999.90;999.90;;;4.60;99.90;;;;;;5050299;28;20556;-66
2022/12/04 09:57:52;;;;;;;1999.90;999.90;;;4.40;99.90;;;;;;5049539;28;20447;-66
2022/12/04 10:00:20;;;;;;;1999.90;999.90;;;4.20;99.90;;;;;;5049505;28;20491;-65
2022/12/04 10:02:53;;;;;;;1999.90;999.90;;;4.00;99.90;;;;;;5049774;28;20447;-66
2022/12/04 10:05:35;;;;;;;1999.90;999.90;;;4.00;99.90;;;;;;5048901;28;20455;-66
2022/12/04 10:08:10;;;;;;;1999.90;999.90;;;3.90;99.90;;;;;;5049454;28;20444;-66
2022/12/04 10:10:41;;;;;;;1999.90;999.90;;;3.90;99.90;;;;;;5041828;28;20969;-66
2022/12/04 10:13:24;;;;;;;1999.90;999.90;;;3.90;99.90;;;;;;5042629;28;20445;-68
2022/12/04 10:15:55;;;;;;;1999.90;999.90;;;3.90;99.90;;;;;;5041665;28;20458;-66
2022/12/04 10:18:34;;;;;;;1999.90;999.90;;;3.80;99.90;;;;;;5047212;28;20440;-67
2022/12/04 10:21:15;;;;;;;1999.90;999.90;;;3.80;99.90;;;;;;5043587;28;20478;-66
2022/12/04 10:23:54;;;;;;;1999.90;999.90;;;3.70;99.90;;;;;;5043227;28;20433;-66
2022/12/04 10:26:27;;;;;;;1999.90;999.90;;;3.80;99.90;;;;;;5043834;28;20443;-66
2022/12/04 10:28:58;;;;;;;1999.90;999.90;;;3.70;99.90;;;;;;5045409;28;20452;-65
2022/12/04 10:31:27;;;;;;;1999.90;999.90;;;3.70;99.90;;;;;;5046977;28;20460;-67
2022/12/04 10:33:58;;;;;;;1999.90;999.90;;;3.80;99.90;;;;;;5044732;28;20467;-66
2022/12/04 10:36:31;;;;;;;1999.90;999.90;;;3.70;99.90;;;;;;5041858;28;20455;-67
2022/12/04 10:39:00;;;;;;;1999.90;999.90;;;3.60;99.90;;;;;;5044585;28;20480;-66
2022/12/04 10:41:35;;;;;;;1999.90;999.90;;;3.60;99.90;;;;;;5046459;28;21180;-66
2022/12/04 10:44:01;;;;;;;1999.90;999.90;;;3.70;99.90;;;;;;5046011;28;20444;-66
2022/12/04 10:46:30;;;;;;;1999.90;999.90;;;3.70;99.90;;;;;;5046488;28;20949;-67
2022/12/04 10:49:01;;;;;;;1999.90;999.90;;;3.80;99.90;;;;;;5032025;28;20447;-66
2022/12/04 10:51:33;;;;;;;1999.90;999.90;;;3.90;99.90;;;;;;5042179;28;20812;-66
2022/12/04 10:54:00;;;;;;;1999.90;999.90;;;4.00;99.90;;;;;;5038881;28;20467;-66
2022/12/04 10:56:28;;;;;;;1999.90;999.90;;;4.00;99.90;;;;;;5042339;28;20440;-67
2022/12/04 10:58:57;;;;;;;1999.90;999.90;;;4.20;99.90;;;;;;5040456;28;20455;-67
2022/12/04 11:01:25;;;;;;;1999.90;999.90;;;4.00;99.90;;;;;;5042872;28;20475;-67
2022/12/04 11:03:59;;;;;;;1999.90;999.90;;;4.00;99.90;;;;;;5042294;28;20456;-67
2022/12/04 11:06:27;;;;;;;1999.90;999.90;;;4.10;99.90;;;;;;5041383;28;20472;-66
2022/12/04 11:08:55;;;;;;;1999.90;999.90;;;4.10;99.90;;;;;;5040655;28;21182;-67
2022/12/04 11:11:26;;;;;;;1999.90;999.90;;;4.10;99.90;;;;;;5042034;28;20499;-66
2022/12/04 11:14:03;;;;;;;1999.90;999.90;;;4.10;99.90;;;;;;5041467;28;20947;-66
2022/12/04 11:16:35;;;;;;;1999.90;999.90;;;4.20;99.90;;;;;;5042746;28;20453;-65
2022/12/04 11:19:03;;;;;;;1999.90;999.90;;;4.30;99.90;;;;;;5045255;28;20825;-67
2022/12/04 11:21:31;;;;;;;1999.90;999.90;;;4.40;99.90;;;;;;5046676;28;20550;-67
2022/12/04 11:23:58;;;;;;;1999.90;999.90;;;4.30;99.90;;;;;;5045673;28;20440;-67
2022/12/04 11:26:34;;;;;;;1999.90;999.90;;;4.30;99.90;;;;;;5045086;28;20480;-66
2022/12/04 11:29:04;;;;;;;1999.90;999.90;;;4.10;99.90;;;;;;5045667;28;20439;-67
2022/12/04 11:31:32;;;;;;;1999.90;999.90;;;4.00;99.90;;;;;;5043994;28;20550;-67
2022/12/04 11:34:01;;;;;;;1999.90;999.90;;;4.00;99.90;;;;;;5044949;28;21937;-67
2022/12/04 11:36:33;;;;;;;1999.90;999.90;;;4.00;99.90;;;;;;5046628;28;20456;-65
2022/12/04 11:39:06;;;;;;;1999.90;999.90;;;4.00;99.90;;;;;;5045984;28;20443;-67
2022/12/04 11:41:33;;;;;;;1999.90;999.90;;;3.90;99.90;;;;;;5046192;28;20460;-66
2022/12/04 11:44:02;;;;;;;1999.90;999.90;;;3.90;99.90;;;;;;5045794;28;20452;-66
2022/12/04 11:46:32;;;;;;;1999.90;999.90;;;3.90;99.90;;;;;;5044786;28;20483;-66
2022/12/04 11:49:02;;;;;;;1999.90;999.90;;;3.90;99.90;;;;;;5044286;28;20451;-66
2022/12/04 11:51:42;;;;;;;1999.90;999.90;;;4.00;99.90;;;;;;5041359;28;20840;-66
2022/12/04 11:54:18;;;;;;;1999.90;999.90;;;4.10;99.90;;;;;;5044815;28;20462;-65
2022/12/04 11:56:50;;;;;;;1999.90;999.90;;;4.10;99.90;;;;;;5043498;28;20444;-67
2022/12/04 11:59:41;;;;;;;1999.90;999.90;;;4.10;99.90;;;;;;5044307;28;20448;-66
2022/12/04 12:02:30;;;;;;;1999.90;999.90;;;4.30;99.90;;;;;;5046131;28;20472;-66
2022/12/04 12:05:14;;;;;;;1999.90;999.90;;;4.40;99.90;;;;;;5045500;28;21263;-66
2022/12/04 12:07:47;;;;;;;1999.90;999.90;;;4.50;99.90;;;;;;5045479;28;20448;-66
2022/12/04 12:10:22;;;;;;;1999.90;999.90;;;4.50;99.90;;;;;;5043466;28;20449;-67
2022/12/04 12:12:58;;;;;;;1999.90;999.90;;;4.40;99.90;;;;;;5044092;28;20472;-67
2022/12/04 12:15:33;;;;;;;1999.90;999.90;;;4.40;99.90;;;;;;5036382;28;21171;-67
2022/12/04 12:18:19;;;;;;;1999.90;999.90;;;4.50;99.90;;;;;;5040378;28;20444;-67
2022/12/04 12:20:56;;;;;;;1999.90;999.90;;;4.50;99.90;;;;;;5037355;28;20495;-66
2022/12/04 12:23:35;;;;;;;1999.90;999.90;;;4.50;99.90;;;;;;5039769;28;20452;-66
2022/12/04 12:26:08;;;;;;;1999.90;999.90;;;4.40;99.90;;;;;;5043086;28;20836;-66
2022/12/04 12:28:48;;;;;;;1999.90;999.90;;;4.50;99.90;;;;;;5045843;28;20451;-68
2022/12/04 12:31:37;;;;;;;1999.90;999.90;;;4.40;99.90;;;;;;5046145;28;20488;-66
2022/12/04 12:34:08;;;;;;;1999.90;999.90;;;4.50;99.90;;;;;;5046654;28;20539;-67
2022/12/04 12:36:38;;;;;;;1999.90;999.90;;;4.40;99.90;;;;;;5045047;28;20448;-66